Donaldson, Kentucky
Current Conditions -  °F | °C
As of 9:26 AM on Monday 22 Dec 2014 (Local Time) from KHOP Reporting Station
Broken Clouds Broken Clouds  
Wind Chill: 50°   Ceiling: 2000
Heat Index: 50°   Visibility: 10mi
Dew Point: 45°   Wind: 9mph
Humidity: 82%   Direction: 130°SE
Pressure: 29.88"   Gusts: NA
Location:  36.8031°N, 87.8159°W
Report Text: KHOP 221526Z AUTO 13008KT 10SM SCT015 BKN020 10/07 A2988 RMK AO2 CIG 014V021 BKN V OVC
Loading
Personal Weather Stations






























Interactive Weather Map New forecast layout! Learn more

10-Day Weather Forecast

Advertisements
Track Severe Weather on mobile